sensor_id;sensor_type;location;lat;lon;timestamp;temperature;humidity
24326;DHT22;12448;45.532;5.290;2022-08-19T00:08:48;18.40;97.40
24326;DHT22;12448;45.532;5.290;2022-08-19T00:12:16;18.40;97.30
24326;DHT22;12448;45.532;5.290;2022-08-19T00:15:30;18.50;97.30
24326;DHT22;12448;45.532;5.290;2022-08-19T00:18:40;18.60;97.30
24326;DHT22;12448;45.532;5.290;2022-08-19T00:21:50;18.60;96.80
24326;DHT22;12448;45.532;5.290;2022-08-19T00:27:25;18.50;96.70
24326;DHT22;12448;45.532;5.290;2022-08-19T00:30:30;18.50;96.70
24326;DHT22;12448;45.532;5.290;2022-08-19T00:33:26;18.40;96.90
24326;DHT22;12448;45.532;5.290;2022-08-19T00:36:36;18.40;97.40
24326;DHT22;12448;45.532;5.290;2022-08-19T00:39:46;18.30;97.80
24326;DHT22;12448;45.532;5.290;2022-08-19T00:42:27;18.20;98.70
24326;DHT22;12448;45.532;5.290;2022-08-19T00:45:27;18.20;99.10
24326;DHT22;12448;45.532;5.290;2022-08-19T00:48:23;18.10;99.20
24326;DHT22;12448;45.532;5.290;2022-08-19T00:51:12;18.20;99.40
24326;DHT22;12448;45.532;5.290;2022-08-19T00:58:04;18.20;99.60
24326;DHT22;12448;45.532;5.290;2022-08-19T01:01:21;18.20;99.60
24326;DHT22;12448;45.532;5.290;2022-08-19T01:11:04;18.30;99.90
24326;DHT22;12448;45.532;5.290;2022-08-19T01:17:08;18.20;99.90
24326;DHT22;12448;45.532;5.290;2022-08-19T01:20:23;18.20;99.90
24326;DHT22;12448;45.532;5.290;2022-08-19T01:23:02;18.20;99.90
24326;DHT22;12448;45.532;5.290;2022-08-19T01:29:14;18.20;99.90
24326;DHT22;12448;45.532;5.290;2022-08-19T01:32:02;18.00;99.90
24326;DHT22;12448;45.532;5.290;2022-08-19T01:34:34;18.00;99.90
24326;DHT22;12448;45.532;5.290;2022-08-19T01:37:10;17.90;99.90
24326;DHT22;12448;45.532;5.290;2022-08-19T01:39:59;17.90;99.90
24326;DHT22;12448;45.532;5.290;2022-08-19T01:42:31;17.90;99.90
24326;DHT22;12448;45.532;5.290;2022-08-19T01:45:06;17.90;99.90
24326;DHT22;12448;45.532;5.290;2022-08-19T01:47:47;17.90;99.90
24326;DHT22;12448;45.532;5.290;2022-08-19T01:50:49;18.00;99.90
24326;DHT22;12448;45.532;5.290;2022-08-19T01:56:12;18.00;99.90
24326;DHT22;12448;45.532;5.290;2022-08-19T01:59:17;18.00;99.90
24326;DHT22;12448;45.532;5.290;2022-08-19T02:02:41;17.90;99.90
24326;DHT22;12448;45.532;5.290;2022-08-19T02:05:02;18.00;99.90
24326;DHT22;12448;45.532;5.290;2022-08-19T02:08:05;17.90;99.90
24326;DHT22;12448;45.532;5.290;2022-08-19T02:10:57;18.00;99.90
24326;DHT22;12448;45.532;5.290;2022-08-19T02:15:07;18.00;99.90
24326;DHT22;12448;45.532;5.290;2022-08-19T02:21:07;18.10;99.90
24326;DHT22;12448;45.532;5.290;2022-08-19T02:27:09;18.00;99.90
24326;DHT22;12448;45.532;5.290;2022-08-19T02:33:02;18.10;99.90
24326;DHT22;12448;45.532;5.290;2022-08-19T02:36:30;18.10;99.90
24326;DHT22;12448;45.532;5.290;2022-08-19T02:41:56;18.00;99.90
24326;DHT22;12448;45.532;5.290;2022-08-19T02:44:47;18.00;99.90
24326;DHT22;12448;45.532;5.290;2022-08-19T02:47:23;18.10;99.90
24326;DHT22;12448;45.532;5.290;2022-08-19T02:50:10;18.10;99.90
24326;DHT22;12448;45.532;5.290;2022-08-19T03:06:17;18.20;99.90
24326;DHT22;12448;45.532;5.290;2022-08-19T03:16:52;18.20;99.90
24326;DHT22;12448;45.532;5.290;2022-08-19T03:20:06;18.10;99.90
24326;DHT22;12448;45.532;5.290;2022-08-19T03:22:56;18.10;99.90
24326;DHT22;12448;45.532;5.290;2022-08-19T03:26:03;18.10;99.90
24326;DHT22;12448;45.532;5.290;2022-08-19T03:28:51;18.20;99.90
24326;DHT22;12448;45.532;5.290;2022-08-19T03:35:27;17.70;99.90
24326;DHT22;12448;45.532;5.290;2022-08-19T03:45:02;18.10;99.90
24326;DHT22;12448;45.532;5.290;2022-08-19T03:47:36;18.00;99.90
24326;DHT22;12448;45.532;5.290;2022-08-19T03:50:59;18.00;99.90
24326;DHT22;12448;45.532;5.290;2022-08-19T03:53:45;18.00;99.90
24326;DHT22;12448;45.532;5.290;2022-08-19T03:56:50;18.00;99.90
24326;DHT22;12448;45.532;5.290;2022-08-19T04:00:16;18.10;99.90
24326;DHT22;12448;45.532;5.290;2022-08-19T04:02:29;18.10;99.90
24326;DHT22;12448;45.532;5.290;2022-08-19T04:15:29;18.20;99.90
24326;DHT22;12448;45.532;5.290;2022-08-19T04:22:07;18.20;99.90
24326;DHT22;12448;45.532;5.290;2022-08-19T04:42:15;18.20;99.90
24326;DHT22;12448;45.532;5.290;2022-08-19T04:48:46;18.10;99.90
24326;DHT22;12448;45.532;5.290;2022-08-19T04:51:24;18.10;99.90
24326;DHT22;12448;45.532;5.290;2022-08-19T04:54:35;18.10;99.90
24326;DHT22;12448;45.532;5.290;2022-08-19T05:04:13;18.20;99.90
24326;DHT22;12448;45.532;5.290;2022-08-19T05:14:25;18.20;99.90
24326;DHT22;12448;45.532;5.290;2022-08-19T05:31:18;18.00;99.90
24326;DHT22;12448;45.532;5.290;2022-08-19T05:34:38;18.00;99.90
24326;DHT22;12448;45.532;5.290;2022-08-19T05:44:46;18.10;99.90
24326;DHT22;12448;45.532;5.290;2022-08-19T05:55:48;18.10;99.90
24326;DHT22;12448;45.532;5.290;2022-08-19T06:01:58;18.10;99.90
24326;DHT22;12448;45.532;5.290;2022-08-19T06:05:18;18.10;99.90
24326;DHT22;12448;45.532;5.290;2022-08-19T06:12:06;18.10;99.90
24326;DHT22;12448;45.532;5.290;2022-08-19T06:15:14;18.10;99.90
24326;DHT22;12448;45.532;5.290;2022-08-19T06:24:46;18.20;99.90
24326;DHT22;12448;45.532;5.290;2022-08-19T06:27:43;18.10;99.90
24326;DHT22;12448;45.532;5.290;2022-08-19T06:30:35;18.10;99.90
24326;DHT22;12448;45.532;5.290;2022-08-19T06:33:30;18.10;99.90
24326;DHT22;12448;45.532;5.290;2022-08-19T06:36:42;18.10;99.90
24326;DHT22;12448;45.532;5.290;2022-08-19T06:50:17;18.20;99.90
24326;DHT22;12448;45.532;5.290;2022-08-19T06:57:02;18.10;99.90
24326;DHT22;12448;45.532;5.290;2022-08-19T06:59:51;18.10;99.90
24326;DHT22;12448;45.532;5.290;2022-08-19T07:06:31;18.10;99.90
24326;DHT22;12448;45.532;5.290;2022-08-19T07:13:13;18.20;99.90
24326;DHT22;12448;45.532;5.290;2022-08-19T07:23:42;18.30;99.90
24326;DHT22;12448;45.532;5.290;2022-08-19T07:33:07;18.30;99.90
24326;DHT22;12448;45.532;5.290;2022-08-19T07:57:18;18.20;99.90
24326;DHT22;12448;45.532;5.290;2022-08-19T08:07:11;18.30;99.90
24326;DHT22;12448;45.532;5.290;2022-08-19T08:28:31;18.30;99.90
24326;DHT22;12448;45.532;5.290;2022-08-19T08:38:58;18.20;99.90
24326;DHT22;12448;45.532;5.290;2022-08-19T10:40:52;19.20;99.90
24326;DHT22;12448;45.532;5.290;2022-08-19T12:21:16;19.10;99.90
24326;DHT22;12448;45.532;5.290;2022-08-19T12:23:43;19.10;99.90
24326;DHT22;12448;45.532;5.290;2022-08-19T12:26:11;19.10;99.90
24326;DHT22;12448;45.532;5.290;2022-08-19T12:28:37;19.30;99.70
24326;DHT22;12448;45.532;5.290;2022-08-19T12:31:04;19.10;99.80
24326;DHT22;12448;45.532;5.290;2022-08-19T12:33:30;19.10;99.90
24326;DHT22;12448;45.532;5.290;2022-08-19T12:36:02;19.10;99.90
24326;DHT22;12448;45.532;5.290;2022-08-19T12:38:28;19.10;99.40
24326;DHT22;12448;45.532;5.290;2022-08-19T12:40:54;19.20;99.30
24326;DHT22;12448;45.532;5.290;2022-08-19T12:43:19;19.20;99.20
24326;DHT22;12448;45.532;5.290;2022-08-19T12:45:45;19.20;99.10
24326;DHT22;12448;45.532;5.290;2022-08-19T12:48:11;19.30;99.30
24326;DHT22;12448;45.532;5.290;2022-08-19T12:50:41;19.40;99.00
24326;DHT22;12448;45.532;5.290;2022-08-19T12:53:07;19.40;98.80
24326;DHT22;12448;45.532;5.290;2022-08-19T12:55:33;19.40;98.70
24326;DHT22;12448;45.532;5.290;2022-08-19T12:57:59;19.50;98.40
24326;DHT22;12448;45.532;5.290;2022-08-19T13:00:27;19.50;98.40
24326;DHT22;12448;45.532;5.290;2022-08-19T13:02:53;19.60;98.60
24326;DHT22;12448;45.532;5.290;2022-08-19T13:05:25;19.70;98.40
24326;DHT22;12448;45.532;5.290;2022-08-19T13:07:53;19.90;98.30
24326;DHT22;12448;45.532;5.290;2022-08-19T13:10:22;20.10;98.50
24326;DHT22;12448;45.532;5.290;2022-08-19T13:12:49;20.20;97.50
24326;DHT22;12448;45.532;5.290;2022-08-19T13:15:17;20.30;97.00
24326;DHT22;12448;45.532;5.290;2022-08-19T13:17:50;20.40;96.80
24326;DHT22;12448;45.532;5.290;2022-08-19T13:20:18;20.40;95.70
24326;DHT22;12448;45.532;5.290;2022-08-19T13:22:45;20.40;95.20
24326;DHT22;12448;45.532;5.290;2022-08-19T13:25:15;20.30;94.80
24326;DHT22;12448;45.532;5.290;2022-08-19T13:27:46;20.20;94.50
24326;DHT22;12448;45.532;5.290;2022-08-19T13:30:15;20.10;94.90
24326;DHT22;12448;45.532;5.290;2022-08-19T13:32:59;20.10;94.70
24326;DHT22;12448;45.532;5.290;2022-08-19T13:35:58;20.00;94.60
24326;DHT22;12448;45.532;5.290;2022-08-19T13:38:30;19.90;94.80
24326;DHT22;12448;45.532;5.290;2022-08-19T13:41:06;19.90;94.80
24326;DHT22;12448;45.532;5.290;2022-08-19T13:43:44;19.90;94.80
24326;DHT22;12448;45.532;5.290;2022-08-19T13:46:11;19.90;95.30
24326;DHT22;12448;45.532;5.290;2022-08-19T13:48:42;19.90;95.00
24326;DHT22;12448;45.532;5.290;2022-08-19T13:51:15;19.80;94.40
24326;DHT22;12448;45.532;5.290;2022-08-19T13:53:42;19.80;94.70
24326;DHT22;12448;45.532;5.290;2022-08-19T13:56:56;19.70;94.60
24326;DHT22;12448;45.532;5.290;2022-08-19T13:59:44;19.80;94.70
24326;DHT22;12448;45.532;5.290;2022-08-19T14:05:45;19.80;94.60
24326;DHT22;12448;45.532;5.290;2022-08-19T14:08:11;19.90;94.80
24326;DHT22;12448;45.532;5.290;2022-08-19T14:11:13;19.80;94.80
24326;DHT22;12448;45.532;5.290;2022-08-19T14:13:39;20.00;94.90
24326;DHT22;12448;45.532;5.290;2022-08-19T14:16:12;20.10;94.50
24326;DHT22;12448;45.532;5.290;2022-08-19T14:18:42;20.20;93.90
24326;DHT22;12448;45.532;5.290;2022-08-19T14:21:18;20.40;93.90
24326;DHT22;12448;45.532;5.290;2022-08-19T14:23:45;20.70;93.90
24326;DHT22;12448;45.532;5.290;2022-08-19T14:26:36;20.90;92.70
24326;DHT22;12448;45.532;5.290;2022-08-19T14:29:56;21.20;91.90
24326;DHT22;12448;45.532;5.290;2022-08-19T14:32:18;21.40;89.20
24326;DHT22;12448;45.532;5.290;2022-08-19T14:34:44;21.40;87.60
24326;DHT22;12448;45.532;5.290;2022-08-19T14:37:13;21.60;89.10
24326;DHT22;12448;45.532;5.290;2022-08-19T14:39:43;21.80;88.90
24326;DHT22;12448;45.532;5.290;2022-08-19T14:42:10;22.00;87.20
24326;DHT22;12448;45.532;5.290;2022-08-19T14:44:36;22.00;82.90
24326;DHT22;12448;45.532;5.290;2022-08-19T14:47:02;22.10;82.80
24326;DHT22;12448;45.532;5.290;2022-08-19T14:49:28;22.20;82.40
24326;DHT22;12448;45.532;5.290;2022-08-19T14:51:54;22.20;81.80
24326;DHT22;12448;45.532;5.290;2022-08-19T14:54:20;22.30;81.40
24326;DHT22;12448;45.532;5.290;2022-08-19T14:56:46;22.40;81.30
24326;DHT22;12448;45.532;5.290;2022-08-19T14:59:12;22.50;81.80
24326;DHT22;12448;45.532;5.290;2022-08-19T15:01:38;22.60;81.80
24326;DHT22;12448;45.532;5.290;2022-08-19T15:04:04;22.70;82.10
24326;DHT22;12448;45.532;5.290;2022-08-19T15:06:29;22.80;81.80
24326;DHT22;12448;45.532;5.290;2022-08-19T15:08:57;23.00;82.30
24326;DHT22;12448;45.532;5.290;2022-08-19T15:11:24;23.00;80.10
24326;DHT22;12448;45.532;5.290;2022-08-19T15:13:56;23.10;78.90
24326;DHT22;12448;45.532;5.290;2022-08-19T15:16:23;23.10;78.40
24326;DHT22;12448;45.532;5.290;2022-08-19T15:18:54;22.90;76.80
24326;DHT22;12448;45.532;5.290;2022-08-19T15:21:21;23.10;74.70
24326;DHT22;12448;45.532;5.290;2022-08-19T15:23:48;23.00;74.70
24326;DHT22;12448;45.532;5.290;2022-08-19T15:26:15;23.00;74.50
24326;DHT22;12448;45.532;5.290;2022-08-19T15:28:41;23.00;74.80
24326;DHT22;12448;45.532;5.290;2022-08-19T15:31:07;23.00;74.50
24326;DHT22;12448;45.532;5.290;2022-08-19T15:33:34;23.00;73.90
24326;DHT22;12448;45.532;5.290;2022-08-19T15:36:05;22.90;72.20
24326;DHT22;12448;45.532;5.290;2022-08-19T15:38:32;22.90;73.10
24326;DHT22;12448;45.532;5.290;2022-08-19T15:40:59;22.90;72.60
24326;DHT22;12448;45.532;5.290;2022-08-19T15:43:46;23.00;72.40
24326;DHT22;12448;45.532;5.290;2022-08-19T15:46:11;23.00;71.50
24326;DHT22;12448;45.532;5.290;2022-08-19T15:48:37;23.10;71.80
24326;DHT22;12448;45.532;5.290;2022-08-19T15:51:03;23.20;73.10
24326;DHT22;12448;45.532;5.290;2022-08-19T15:53:29;23.20;73.50
24326;DHT22;12448;45.532;5.290;2022-08-19T15:55:54;23.30;73.80
24326;DHT22;12448;45.532;5.290;2022-08-19T15:58:20;23.30;73.40
24326;DHT22;12448;45.532;5.290;2022-08-19T16:01:06;23.30;72.90
24326;DHT22;12448;45.532;5.290;2022-08-19T16:03:52;23.40;72.20
24326;DHT22;12448;45.532;5.290;2022-08-19T16:06:37;23.50;72.20
24326;DHT22;12448;45.532;5.290;2022-08-19T16:09:04;23.50;72.10
24326;DHT22;12448;45.532;5.290;2022-08-19T16:11:32;23.50;71.30
24326;DHT22;12448;45.532;5.290;2022-08-19T16:13:58;23.50;71.90
24326;DHT22;12448;45.532;5.290;2022-08-19T16:16:27;23.40;72.20
24326;DHT22;12448;45.532;5.290;2022-08-19T16:18:57;23.40;72.40
24326;DHT22;12448;45.532;5.290;2022-08-19T16:21:24;23.30;72.80
24326;DHT22;12448;45.532;5.290;2022-08-19T16:23:52;23.30;73.50
24326;DHT22;12448;45.532;5.290;2022-08-19T16:26:18;23.40;73.80
24326;DHT22;12448;45.532;5.290;2022-08-19T16:28:45;23.40;74.00
24326;DHT22;12448;45.532;5.290;2022-08-19T16:31:13;23.40;74.00
24326;DHT22;12448;45.532;5.290;2022-08-19T16:33:39;23.40;74.20
24326;DHT22;12448;45.532;5.290;2022-08-19T16:36:05;23.40;74.40
24326;DHT22;12448;45.532;5.290;2022-08-19T16:38:32;23.40;74.60
24326;DHT22;12448;45.532;5.290;2022-08-19T16:40:59;23.40;74.50
24326;DHT22;12448;45.532;5.290;2022-08-19T16:43:27;23.40;74.70
24326;DHT22;12448;45.532;5.290;2022-08-19T16:45:53;23.40;74.30
24326;DHT22;12448;45.532;5.290;2022-08-19T16:48:23;23.40;74.60
24326;DHT22;12448;45.532;5.290;2022-08-19T16:50:50;23.40;74.60
24326;DHT22;12448;45.532;5.290;2022-08-19T16:53:18;23.40;74.60
24326;DHT22;12448;45.532;5.290;2022-08-19T16:55:45;23.40;74.50
24326;DHT22;12448;45.532;5.290;2022-08-19T16:58:19;23.40;74.80
24326;DHT22;12448;45.532;5.290;2022-08-19T17:00:46;23.40;75.10
24326;DHT22;12448;45.532;5.290;2022-08-19T17:03:14;23.30;75.40
24326;DHT22;12448;45.532;5.290;2022-08-19T17:05:43;23.30;75.50
24326;DHT22;12448;45.532;5.290;2022-08-19T17:08:09;23.30;75.40
24326;DHT22;12448;45.532;5.290;2022-08-19T17:10:35;23.40;75.60
24326;DHT22;12448;45.532;5.290;2022-08-19T17:13:03;23.40;75.60
24326;DHT22;12448;45.532;5.290;2022-08-19T17:15:29;23.50;75.30
24326;DHT22;12448;45.532;5.290;2022-08-19T17:18:00;23.40;75.10
24326;DHT22;12448;45.532;5.290;2022-08-19T17:20:28;23.50;74.80
24326;DHT22;12448;45.532;5.290;2022-08-19T17:22:55;23.50;74.80
24326;DHT22;12448;45.532;5.290;2022-08-19T17:25:23;23.50;74.70
24326;DHT22;12448;45.532;5.290;2022-08-19T17:27:48;23.50;74.70
24326;DHT22;12448;45.532;5.290;2022-08-19T17:30:16;23.40;74.80
24326;DHT22;12448;45.532;5.290;2022-08-19T17:32:42;23.00;74.70
24326;DHT22;12448;45.532;5.290;2022-08-19T17:35:08;23.20;75.10
24326;DHT22;12448;45.532;5.290;2022-08-19T17:37:35;23.10;75.00
24326;DHT22;12448;45.532;5.290;2022-08-19T17:40:03;23.00;75.70
24326;DHT22;12448;45.532;5.290;2022-08-19T17:42:30;22.90;76.00
24326;DHT22;12448;45.532;5.290;2022-08-19T17:44:56;22.80;76.20
24326;DHT22;12448;45.532;5.290;2022-08-19T17:47:25;22.70;76.30
24326;DHT22;12448;45.532;5.290;2022-08-19T17:49:56;22.70;76.60
24326;DHT22;12448;45.532;5.290;2022-08-19T17:52:22;22.60;77.00
24326;DHT22;12448;45.532;5.290;2022-08-19T17:54:47;22.50;77.10
24326;DHT22;12448;45.532;5.290;2022-08-19T17:57:13;22.50;77.40
24326;DHT22;12448;45.532;5.290;2022-08-19T17:59:39;22.40;77.70
24326;DHT22;12448;45.532;5.290;2022-08-19T18:02:06;22.40;78.00
24326;DHT22;12448;45.532;5.290;2022-08-19T18:04:33;22.40;78.40
24326;DHT22;12448;45.532;5.290;2022-08-19T18:06:59;22.30;78.50
24326;DHT22;12448;45.532;5.290;2022-08-19T18:09:30;22.30;78.50
24326;DHT22;12448;45.532;5.290;2022-08-19T18:11:57;22.20;78.50
24326;DHT22;12448;45.532;5.290;2022-08-19T18:14:25;22.20;78.70
24326;DHT22;12448;45.532;5.290;2022-08-19T18:16:53;22.20;78.80
24326;DHT22;12448;45.532;5.290;2022-08-19T18:19:21;22.10;78.50
24326;DHT22;12448;45.532;5.290;2022-08-19T18:21:46;22.00;78.60
24326;DHT22;12448;45.532;5.290;2022-08-19T18:24:12;22.00;78.80
24326;DHT22;12448;45.532;5.290;2022-08-19T18:26:38;21.90;79.00
24326;DHT22;12448;45.532;5.290;2022-08-19T18:29:05;21.80;79.10
24326;DHT22;12448;45.532;5.290;2022-08-19T18:31:30;21.80;79.40
24326;DHT22;12448;45.532;5.290;2022-08-19T18:33:56;21.70;79.60
24326;DHT22;12448;45.532;5.290;2022-08-19T18:36:22;21.60;79.70
24326;DHT22;12448;45.532;5.290;2022-08-19T18:38:48;21.60;80.00
24326;DHT22;12448;45.532;5.290;2022-08-19T18:41:32;21.60;80.30
24326;DHT22;12448;45.532;5.290;2022-08-19T18:44:16;21.50;80.60
24326;DHT22;12448;45.532;5.290;2022-08-19T18:47:00;21.40;81.00
24326;DHT22;12448;45.532;5.290;2022-08-19T18:49:44;21.30;81.40
24326;DHT22;12448;45.532;5.290;2022-08-19T18:52:10;21.30;81.80
24326;DHT22;12448;45.532;5.290;2022-08-19T18:54:36;21.30;82.00
24326;DHT22;12448;45.532;5.290;2022-08-19T18:57:02;21.30;82.10
24326;DHT22;12448;45.532;5.290;2022-08-19T18:59:33;21.30;82.20
24326;DHT22;12448;45.532;5.290;2022-08-19T19:01:59;21.30;82.40
24326;DHT22;12448;45.532;5.290;2022-08-19T19:04:30;21.60;82.80
24326;DHT22;12448;45.532;5.290;2022-08-19T19:06:58;21.20;82.80
24326;DHT22;12448;45.532;5.290;2022-08-19T19:09:25;21.20;83.10
24326;DHT22;12448;45.532;5.290;2022-08-19T19:11:54;21.20;83.30
24326;DHT22;12448;45.532;5.290;2022-08-19T19:14:30;21.10;84.20
24326;DHT22;12448;45.532;5.290;2022-08-19T19:17:02;21.10;83.60
24326;DHT22;12448;45.532;5.290;2022-08-19T19:19:30;21.10;83.80
24326;DHT22;12448;45.532;5.290;2022-08-19T19:21:56;21.10;84.00
24326;DHT22;12448;45.532;5.290;2022-08-19T19:24:28;21.10;84.20
24326;DHT22;12448;45.532;5.290;2022-08-19T19:26:56;21.10;84.40
24326;DHT22;12448;45.532;5.290;2022-08-19T19:29:22;21.00;85.40
24326;DHT22;12448;45.532;5.290;2022-08-19T19:31:48;21.10;84.90
24326;DHT22;12448;45.532;5.290;2022-08-19T19:34:19;21.00;84.80
24326;DHT22;12448;45.532;5.290;2022-08-19T19:36:46;21.00;85.90
24326;DHT22;12448;45.532;5.290;2022-08-19T19:39:12;21.00;85.40
24326;DHT22;12448;45.532;5.290;2022-08-19T19:41:38;21.00;85.80
24326;DHT22;12448;45.532;5.290;2022-08-19T19:44:05;20.90;86.00
24326;DHT22;12448;45.532;5.290;2022-08-19T19:46:34;20.90;86.20
24326;DHT22;12448;45.532;5.290;2022-08-19T19:49:00;20.90;86.40
24326;DHT22;12448;45.532;5.290;2022-08-19T19:51:27;20.90;86.50
24326;DHT22;12448;45.532;5.290;2022-08-19T19:53:53;20.90;86.60
24326;DHT22;12448;45.532;5.290;2022-08-19T19:56:20;20.90;86.70
24326;DHT22;12448;45.532;5.290;2022-08-19T19:58:46;20.90;86.70
24326;DHT22;12448;45.532;5.290;2022-08-19T20:01:16;20.90;86.80
24326;DHT22;12448;45.532;5.290;2022-08-19T20:03:43;20.80;87.00
24326;DHT22;12448;45.532;5.290;2022-08-19T20:06:11;20.80;87.10
24326;DHT22;12448;45.532;5.290;2022-08-19T20:08:38;20.80;87.20
24326;DHT22;12448;45.532;5.290;2022-08-19T20:11:29;20.80;87.40
24326;DHT22;12448;45.532;5.290;2022-08-19T20:13:57;20.80;87.40
24326;DHT22;12448;45.532;5.290;2022-08-19T20:16:26;20.80;87.40
24326;DHT22;12448;45.532;5.290;2022-08-19T20:18:53;20.80;87.40
24326;DHT22;12448;45.532;5.290;2022-08-19T20:21:19;20.80;87.40
24326;DHT22;12448;45.532;5.290;2022-08-19T20:23:45;20.80;87.40
24326;DHT22;12448;45.532;5.290;2022-08-19T20:26:11;20.80;87.60
24326;DHT22;12448;45.532;5.290;2022-08-19T20:28:36;20.80;87.70
24326;DHT22;12448;45.532;5.290;2022-08-19T20:31:02;20.80;87.70
24326;DHT22;12448;45.532;5.290;2022-08-19T20:33:28;20.80;87.70
24326;DHT22;12448;45.532;5.290;2022-08-19T20:35:55;20.80;87.60
24326;DHT22;12448;45.532;5.290;2022-08-19T20:38:20;20.80;87.60
24326;DHT22;12448;45.532;5.290;2022-08-19T20:40:47;20.80;87.70
24326;DHT22;12448;45.532;5.290;2022-08-19T20:43:13;20.80;87.80
24326;DHT22;12448;45.532;5.290;2022-08-19T20:45:39;20.90;87.80
24326;DHT22;12448;45.532;5.290;2022-08-19T20:48:07;20.80;87.80
24326;DHT22;12448;45.532;5.290;2022-08-19T20:50:34;20.80;87.90
24326;DHT22;12448;45.532;5.290;2022-08-19T20:53:07;20.80;88.00
24326;DHT22;12448;45.532;5.290;2022-08-19T20:55:33;20.90;88.20
24326;DHT22;12448;45.532;5.290;2022-08-19T20:57:59;20.90;88.20
24326;DHT22;12448;45.532;5.290;2022-08-19T21:00:25;20.90;88.30
24326;DHT22;12448;45.532;5.290;2022-08-19T21:02:50;20.90;88.40
24326;DHT22;12448;45.532;5.290;2022-08-19T21:05:16;20.80;88.60
24326;DHT22;12448;45.532;5.290;2022-08-19T21:07:42;20.80;88.60
24326;DHT22;12448;45.532;5.290;2022-08-19T21:10:08;20.80;88.80
24326;DHT22;12448;45.532;5.290;2022-08-19T21:12:34;20.80;88.90
24326;DHT22;12448;45.532;5.290;2022-08-19T21:14:59;20.50;88.80
24326;DHT22;12448;45.532;5.290;2022-08-19T21:17:25;20.70;89.10
24326;DHT22;12448;45.532;5.290;2022-08-19T21:19:51;20.70;89.30
24326;DHT22;12448;45.532;5.290;2022-08-19T21:22:16;20.70;89.40
24326;DHT22;12448;45.532;5.290;2022-08-19T21:24:42;20.70;89.50
24326;DHT22;12448;45.532;5.290;2022-08-19T21:27:08;20.70;89.60
24326;DHT22;12448;45.532;5.290;2022-08-19T21:29:33;20.70;89.60
24326;DHT22;12448;45.532;5.290;2022-08-19T21:32:02;20.70;89.80
24326;DHT22;12448;45.532;5.290;2022-08-19T21:34:28;20.70;89.80
24326;DHT22;12448;45.532;5.290;2022-08-19T21:36:54;20.70;89.90
24326;DHT22;12448;45.532;5.290;2022-08-19T21:39:20;20.70;89.90
24326;DHT22;12448;45.532;5.290;2022-08-19T21:41:46;20.70;90.00
24326;DHT22;12448;45.532;5.290;2022-08-19T21:44:11;20.70;90.00
24326;DHT22;12448;45.532;5.290;2022-08-19T21:46:37;20.70;90.00
24326;DHT22;12448;45.532;5.290;2022-08-19T21:49:03;20.70;90.10
24326;DHT22;12448;45.532;5.290;2022-08-19T21:51:30;20.70;90.10
24326;DHT22;12448;45.532;5.290;2022-08-19T21:53:56;20.70;90.20
24326;DHT22;12448;45.532;5.290;2022-08-19T21:56:22;20.60;90.30
24326;DHT22;12448;45.532;5.290;2022-08-19T21:59:10;20.70;90.40
24326;DHT22;12448;45.532;5.290;2022-08-19T22:01:35;20.70;90.40
24326;DHT22;12448;45.532;5.290;2022-08-19T22:04:01;20.70;90.40
24326;DHT22;12448;45.532;5.290;2022-08-19T22:06:27;20.70;90.40
24326;DHT22;12448;45.532;5.290;2022-08-19T22:08:52;20.70;90.40
24326;DHT22;12448;45.532;5.290;2022-08-19T22:11:22;20.70;90.40
24326;DHT22;12448;45.532;5.290;2022-08-19T22:13:48;20.70;90.40
24326;DHT22;12448;45.532;5.290;2022-08-19T22:16:19;20.80;90.40
24326;DHT22;12448;45.532;5.290;2022-08-19T22:18:46;20.80;90.40
24326;DHT22;12448;45.532;5.290;2022-08-19T22:21:13;20.90;90.40
24326;DHT22;12448;45.532;5.290;2022-08-19T22:23:42;20.90;90.30
24326;DHT22;12448;45.532;5.290;2022-08-19T22:26:09;20.90;90.30
24326;DHT22;12448;45.532;5.290;2022-08-19T22:28:35;20.90;90.30
24326;DHT22;12448;45.532;5.290;2022-08-19T22:31:01;20.90;90.40
24326;DHT22;12448;45.532;5.290;2022-08-19T22:33:27;21.00;90.50
24326;DHT22;12448;45.532;5.290;2022-08-19T22:35:55;20.90;90.30
24326;DHT22;12448;45.532;5.290;2022-08-19T22:38:21;20.90;90.20
24326;DHT22;12448;45.532;5.290;2022-08-19T22:40:48;20.90;90.20
24326;DHT22;12448;45.532;5.290;2022-08-19T22:43:21;20.80;90.20
24326;DHT22;12448;45.532;5.290;2022-08-19T22:45:49;20.80;90.20
24326;DHT22;12448;45.532;5.290;2022-08-19T22:48:17;20.80;90.20
24326;DHT22;12448;45.532;5.290;2022-08-19T22:50:44;20.80;90.20
24326;DHT22;12448;45.532;5.290;2022-08-19T22:53:29;20.80;90.30
24326;DHT22;12448;45.532;5.290;2022-08-19T22:55:56;20.70;90.30
24326;DHT22;12448;45.532;5.290;2022-08-19T22:58:22;20.70;90.30
24326;DHT22;12448;45.532;5.290;2022-08-19T23:00:48;20.70;90.30
24326;DHT22;12448;45.532;5.290;2022-08-19T23:03:14;20.70;90.30
24326;DHT22;12448;45.532;5.290;2022-08-19T23:05:39;20.60;90.40
24326;DHT22;12448;45.532;5.290;2022-08-19T23:08:05;20.60;90.40
24326;DHT22;12448;45.532;5.290;2022-08-19T23:10:30;20.50;90.50
24326;DHT22;12448;45.532;5.290;2022-08-19T23:12:57;20.50;90.50
24326;DHT22;12448;45.532;5.290;2022-08-19T23:15:29;20.50;90.50
24326;DHT22;12448;45.532;5.290;2022-08-19T23:17:57;20.50;90.50
24326;DHT22;12448;45.532;5.290;2022-08-19T23:20:30;20.60;90.50
24326;DHT22;12448;45.532;5.290;2022-08-19T23:23:02;20.50;90.40
24326;DHT22;12448;45.532;5.290;2022-08-19T23:25:30;20.50;90.40
24326;DHT22;12448;45.532;5.290;2022-08-19T23:27:57;20.50;90.40
24326;DHT22;12448;45.532;5.290;2022-08-19T23:30:44;20.50;90.40
24326;DHT22;12448;45.532;5.290;2022-08-19T23:33:22;20.60;90.40
24326;DHT22;12448;45.532;5.290;2022-08-19T23:35:54;20.50;90.40
24326;DHT22;12448;45.532;5.290;2022-08-19T23:38:21;20.50;90.40
24326;DHT22;12448;45.532;5.290;2022-08-19T23:40:51;20.50;90.40
24326;DHT22;12448;45.532;5.290;2022-08-19T23:43:17;20.60;90.50
24326;DHT22;12448;45.532;5.290;2022-08-19T23:45:43;20.60;90.50
24326;DHT22;12448;45.532;5.290;2022-08-19T23:48:09;20.60;90.50
24326;DHT22;12448;45.532;5.290;2022-08-19T23:50:36;20.60;90.60
24326;DHT22;12448;45.532;5.290;2022-08-19T23:53:03;20.60;90.60
24326;DHT22;12448;45.532;5.290;2022-08-19T23:55:31;20.60;90.70
24326;DHT22;12448;45.532;5.290;2022-08-19T23:57:57;20.70;90.60
